Time;durP1;ratioP1;P1;durP2;ratioP2;P2;SDS_P1;SDS_P2;PMS_P1;PMS_P2;Temp;Humidity;BMP_temperature;BMP_pressure;BME280_temperature;BME280_humidity;BME280_pressure;Samples;Min_cycle;Max_cycle;Signal;HPM_P1;HPM_P2
2023/01/28 00:01:21;;;;;;;3.33;3.03;;;;;;;1.38;77.73;99689.59;5114108;28;20276;-67
2023/01/28 00:03:52;;;;;;;5.72;2.17;;;;;;;1.31;77.43;99684.38;5113875;28;20043;-67
2023/01/28 00:06:20;;;;;;;4.00;3.70;;;;;;;1.31;78.12;99689.38;5114239;28;20036;-67
2023/01/28 00:08:50;;;;;;;4.07;1.88;;;;;;;1.26;77.96;99690.00;5113924;28;20047;-66
2023/01/28 00:11:21;;;;;;;3.33;3.13;;;;;;;1.24;78.71;99692.47;5114195;28;20489;-67
2023/01/28 00:13:51;;;;;;;2.85;2.65;;;;;;;1.20;78.40;99694.84;5113846;28;20130;-69
2023/01/28 00:16:22;;;;;;;2.25;2.05;;;;;;;1.21;78.84;99697.38;5113845;28;20485;-67
2023/01/28 00:18:51;;;;;;;2.97;2.72;;;;;;;1.16;79.27;99693.84;5113025;28;20546;-68
2023/01/28 00:21:20;;;;;;;2.45;2.25;;;;;;;1.14;79.66;99699.63;5113832;28;20063;-66
2023/01/28 00:23:53;;;;;;;0.73;0.73;;;;;;;1.11;79.74;99695.34;5113682;28;20032;-67
2023/01/28 00:26:24;;;;;;;2.40;1.50;;;;;;;1.06;79.21;99696.81;5113887;28;20109;-66
2023/01/28 00:28:53;;;;;;;3.97;2.10;;;;;;;1.03;80.01;99700.91;5113766;28;20048;-68
2023/01/28 00:31:26;;;;;;;3.58;3.05;;;;;;;1.00;80.06;99704.16;5113708;28;20082;-67
2023/01/28 00:33:56;;;;;;;1.70;1.60;;;;;;;0.98;79.63;99698.22;5113115;28;20147;-66
2023/01/28 00:36:26;;;;;;;4.15;2.72;;;;;;;1.00;79.70;99694.09;5112475;28;20050;-67
2023/01/28 00:38:56;;;;;;;;;;;;;;;1.00;79.64;99696.63;5114019;28;20046;-67
2023/01/28 00:41:25;;;;;;;;;;;;;;;1.00;80.09;99701.63;5113158;28;19965;-67
2023/01/28 00:43:54;;;;;;;;;;;;;;;0.99;79.81;99699.91;5113975;28;19927;-66
2023/01/28 00:46:26;;;;;;;0.50;0.50;;;;;;;0.97;80.04;99696.50;5113714;28;19920;-67
2023/01/28 00:48:55;;;;;;;2.53;2.33;;;;;;;0.97;80.11;99695.63;5112423;28;20047;-67
2023/01/28 00:51:24;;;;;;;4.17;2.67;;;;;;;0.99;80.76;99702.41;5114431;28;20442;-67
2023/01/28 00:53:53;;;;;;;1.25;1.15;;;;;;;0.97;80.28;99709.06;5112323;28;20096;-66
2023/01/28 00:56:22;;;;;;;1.87;1.77;;;;;;;0.98;79.99;99700.72;5113661;28;20170;-67
2023/01/28 00:58:51;;;;;;;1.05;1.05;;;;;;;0.94;80.68;99688.84;5113329;28;20056;-67
2023/01/28 01:01:22;;;;;;;2.13;1.93;;;;;;;1.01;80.86;99702.50;5113469;28;20125;-67
2023/01/28 01:04:01;;;;;;;3.90;3.17;;;;;;;1.02;80.32;99707.56;5112785;28;20068;-68
2023/01/28 01:06:34;;;;;;;0.85;0.82;;;;;;;1.01;80.41;99698.31;5113810;28;20401;-67
2023/01/28 01:09:06;;;;;;;2.28;2.08;;;;;;;1.04;79.93;99698.44;5117406;28;20044;-67
2023/01/28 01:11:36;;;;;;;2.85;2.63;;;;;;;1.05;79.91;99704.31;5117148;28;20474;-67
2023/01/28 01:14:05;;;;;;;1.52;1.42;;;;;;;1.01;80.29;99698.31;5115856;28;20088;-68
2023/01/28 01:16:37;;;;;;;1.38;1.27;;;;;;;0.83;80.04;99662.47;5116909;28;20044;-67
2023/01/28 01:19:08;;;;;;;1.95;1.85;;;;;;;1.01;79.82;99693.28;5115757;28;20131;-66
2023/01/28 01:21:36;;;;;;;1.42;1.33;;;;;;;0.99;80.34;99694.88;5116909;28;20047;-67
2023/01/28 01:24:06;;;;;;;3.90;3.43;;;;;;;0.97;79.79;99699.00;5116825;28;20042;-67
2023/01/28 01:26:35;;;;;;;0.70;0.70;;;;;;;0.96;79.66;99697.28;5117258;28;20705;-68
2023/01/28 01:29:04;;;;;;;0.80;0.80;;;;;;;0.95;79.72;99705.63;5117333;28;20036;-66
2023/01/28 01:31:32;;;;;;;2.53;2.33;;;;;;;0.90;80.16;99704.59;5116954;28;20173;-66
2023/01/28 01:34:01;;;;;;;1.00;0.95;;;;;;;0.94;79.67;99710.56;5116622;28;20519;-66
2023/01/28 01:36:32;;;;;;;1.00;1.00;;;;;;;0.95;79.75;99708.16;5116777;28;20075;-67
2023/01/28 01:39:00;;;;;;;1.65;1.55;;;;;;;0.93;79.70;99699.69;5115936;28;20054;-67
2023/01/28 01:41:32;;;;;;;2.80;2.57;;;;;;;0.94;80.15;99706.41;5116812;28;20067;-67
2023/01/28 01:44:03;;;;;;;0.60;0.60;;;;;;;0.92;80.13;99713.03;5115331;28;20054;-67
2023/01/28 01:46:38;;;;;;;2.58;2.03;;;;;;;0.90;80.08;99707.13;5116154;28;20047;-67
2023/01/28 01:49:19;;;;;;;1.08;1.05;;;;;;;0.89;80.10;99717.13;5116706;28;20054;-66
2023/01/28 01:51:54;;;;;;;1.67;1.45;;;;;;;0.92;80.11;99713.03;5116640;28;20097;-67
2023/01/28 01:54:27;;;;;;;1.15;1.13;;;;;;;0.91;80.15;99715.50;5115655;28;20126;-68
2023/01/28 01:56:59;;;;;;;0.60;0.60;;;;;;;0.87;79.38;99714.53;5116463;28;20489;-67
2023/01/28 01:59:31;;;;;;;2.58;1.35;;;;;;;0.83;79.63;99711.84;5114813;28;20047;-67
2023/01/28 02:02:03;;;;;;;2.25;2.10;;;;;;;0.85;79.65;99725.31;5114974;28;20069;-67
2023/01/28 02:04:37;;;;;;;0.90;0.90;;;;;;;0.83;80.01;99712.69;5116050;28;20040;-67
2023/01/28 02:07:11;;;;;;;5.63;2.53;;;;;;;0.84;79.82;99719.44;5114933;28;20047;-67
2023/01/28 02:09:41;;;;;;;1.00;1.00;;;;;;;0.83;79.51;99717.72;5115166;28;20050;-68
2023/01/28 02:12:17;;;;;;;1.45;1.35;;;;;;;0.81;79.61;99714.31;5115930;28;20055;-67
2023/01/28 02:14:51;;;;;;;2.70;2.25;;;;;;;0.85;79.88;99716.13;5114732;28;20497;-67
2023/01/28 02:17:20;;;;;;;1.33;1.23;;;;;;;0.75;79.34;99698.13;5115715;28;20050;-67
2023/01/28 02:19:56;;;;;;;3.50;1.42;;;;;;;0.88;79.69;99710.38;5115789;28;20067;-67
2023/01/28 02:22:56;;;;;;;10.43;3.50;;;;;;;0.91;79.14;99708.81;5115705;28;20046;-67
2023/01/28 02:25:53;;;;;;;1.38;1.27;;;;;;;0.92;79.10;99705.50;5114820;28;20098;-68
2023/01/28 02:28:32;;;;;;;2.28;2.13;;;;;;;0.94;78.99;99703.91;5114767;28;20089;-66
2023/01/28 02:31:09;;;;;;;0.80;0.80;;;;;;;0.91;79.27;99701.28;5115860;28;20070;-67
2023/01/28 02:33:45;;;;;;;1.27;1.25;;;;;;;0.94;79.54;99700.53;5115823;28;20063;-67
2023/01/28 02:36:24;;;;;;;1.40;1.30;;;;;;;0.93;78.96;99704.72;5114555;28;20142;-68
2023/01/28 02:38:56;;;;;;;1.80;1.70;;;;;;;0.92;78.52;99708.03;5114208;28;20060;-65
2023/01/28 02:41:30;;;;;;;1.30;1.20;;;;;;;0.92;78.81;99708.03;5114512;28;20047;-67
2023/01/28 02:44:03;;;;;;;5.68;2.70;;;;;;;0.97;78.54;99709.06;5114415;28;20035;-67
2023/01/28 02:49:21;;;;;;;1.08;0.95;;;;;;;0.96;78.29;99709.84;5114184;28;20126;-67
2023/01/28 02:52:05;;;;;;;3.20;2.22;;;;;;;1.00;78.39;99710.81;5115423;28;20477;-66
2023/01/28 02:54:41;;;;;;;3.00;2.80;;;;;;;1.02;78.30;99712.59;5114224;28;20049;-66
2023/01/28 02:57:21;;;;;;;2.58;2.38;;;;;;;1.02;78.23;99705.06;5115037;28;20051;-67
2023/01/28 02:59:54;;;;;;;;;;;;;;;1.00;77.79;99703.28;5114099;28;20059;-67
2023/01/28 03:02:30;;;;;;;1.52;1.42;;;;;;;1.00;77.44;99710.81;5114082;28;19942;-67
2023/01/28 03:05:05;;;;;;;1.25;1.15;;;;;;;0.97;77.79;99709.06;5114003;28;20426;-66
2023/01/28 03:07:37;;;;;;;2.10;1.30;;;;;;;1.01;77.89;99705.84;5114791;28;20039;-66
2023/01/28 03:10:10;;;;;;;0.43;0.43;;;;;;;1.02;77.63;99700.03;5113387;28;20040;-67
2023/01/28 03:37:07;;;;;;;0.63;0.63;;;;;;;1.08;76.67;99715.31;5113439;28;20092;-67
2023/01/28 03:39:48;;;;;;;2.75;2.58;;;;;;;1.06;76.79;99716.94;5114324;28;20047;-68
2023/01/28 03:42:19;;;;;;;0.80;0.80;;;;;;;1.08;76.31;99714.50;5114470;28;20069;-67
2023/01/28 03:45:00;;;;;;;0.60;0.60;;;;;;;1.06;76.17;99718.56;5114768;28;20413;-66
2023/01/28 03:47:32;;;;;;;1.88;1.77;;;;;;;1.08;76.12;99717.84;5096138;28;20048;-68
2023/01/28 03:50:05;;;;;;;1.50;1.40;;;;;;;1.11;76.13;99720.47;5114495;28;20050;-67
2023/01/28 03:52:45;;;;;;;2.30;1.98;;;;;;;1.08;76.05;99717.84;5114100;28;20497;-68
2023/01/28 03:55:37;;;;;;;3.30;3.03;;;;;;;1.08;76.14;99720.34;5114242;28;20051;-67
2023/01/28 03:58:06;;;;;;;0.50;0.50;;;;;;;1.10;75.88;99718.78;5112908;28;20040;-66
2023/01/28 04:00:40;;;;;;;1.67;1.58;;;;;;;1.10;75.82;99722.94;5113739;28;20051;-67
2023/01/28 04:03:16;;;;;;;1.17;1.13;;;;;;;1.10;75.96;99723.81;5113953;28;20047;-66
2023/01/28 04:06:00;;;;;;;2.35;2.17;;;;;;;1.06;76.11;99718.56;5114325;28;20075;-66
2023/01/28 04:08:44;;;;;;;1.33;1.27;;;;;;;1.12;76.23;99727.22;5113918;28;20055;-66
2023/01/28 04:11:25;;;;;;;1.52;1.42;;;;;;;1.11;75.64;99725.50;5113949;28;20048;-67
2023/01/28 04:13:55;;;;;;;2.70;1.98;;;;;;;1.11;75.97;99725.50;5113871;28;20055;-66
2023/01/28 04:16:25;;;;;;;1.23;1.00;;;;;;;1.10;75.84;99728.81;5114192;28;20054;-67
2023/01/28 04:18:56;;;;;;;3.08;2.80;;;;;;;1.08;76.09;99727.88;5112670;28;20127;-67
2023/01/28 04:21:25;;;;;;;0.80;0.80;;;;;;;1.10;75.11;99727.97;5113825;28;20043;-66
2023/01/28 04:23:54;;;;;;;4.60;2.28;;;;;;;1.11;75.12;99725.50;5112541;28;20577;-67
2023/01/28 04:26:23;;;;;;;0.98;0.98;;;;;;;1.09;75.78;99722.06;5113092;28;20464;-67
2023/01/28 04:28:52;;;;;;;1.38;1.27;;;;;;;1.09;75.71;99724.59;5112482;28;20043;-67
2023/01/28 04:31:22;;;;;;;1.08;1.02;;;;;;;1.10;75.21;99731.34;5113683;28;20100;-67
2023/01/28 04:34:16;;;;;;;0.95;0.93;;;;;;;1.10;75.49;99723.81;5114521;28;20138;-67
2023/01/28 04:37:06;;;;;;;0.47;0.47;;;;;;;1.11;75.07;99735.53;5071956;28;20046;-67
2023/01/28 04:39:45;;;;;;;1.15;1.05;;;;;;;1.11;75.59;99734.69;5112504;28;20523;-67
2023/01/28 04:42:34;;;;;;;1.98;1.80;;;;;;;1.12;75.79;99742.31;5115633;27;20047;-67
2023/01/28 04:45:11;;;;;;;3.28;2.88;;;;;;;1.16;75.03;99733.19;5117689;27;20131;-68
2023/01/28 04:47:52;;;;;;;0.80;0.80;;;;;;;1.14;75.68;99729.78;5117985;28;20481;-66
2023/01/28 04:50:34;;;;;;;2.67;2.00;;;;;;;1.15;74.84;99739.03;5117763;28;20413;-66
2023/01/28 04:53:16;;;;;;;0.70;0.70;;;;;;;1.14;75.20;99740.69;5116308;28;20050;-68
2023/01/28 04:55:57;;;;;;;5.32;2.03;;;;;;;1.13;74.35;99740.63;5117685;28;20094;-66
2023/01/28 04:58:29;;;;;;;1.42;1.33;;;;;;;1.12;74.90;99747.31;5116205;28;20048;-67
2023/01/28 05:01:03;;;;;;;0.90;0.90;;;;;;;1.15;74.72;99747.41;5117113;28;20044;-67
2023/01/28 05:03:33;;;;;;;2.55;2.33;;;;;;;1.15;74.71;99742.38;5117274;28;20044;-67
2023/01/28 05:06:09;;;;;;;3.90;2.80;;;;;;;1.14;75.02;99740.69;5117458;28;20435;-67
2023/01/28 05:08:45;;;;;;;4.43;2.72;;;;;;;1.13;74.14;99741.47;5117067;28;20062;-67
2023/01/28 05:11:16;;;;;;;4.10;2.53;;;;;;;1.16;74.83;99744.13;5117121;28;20044;-67
2023/01/28 05:13:50;;;;;;;3.10;2.80;;;;;;;1.08;74.15;99737.09;5117085;28;20048;-67
2023/01/28 05:16:20;;;;;;;0.88;0.88;;;;;;;1.14;74.49;99748.22;5116968;28;20052;-68
2023/01/28 05:18:50;;;;;;;1.77;1.67;;;;;;;1.15;74.13;99747.41;5115761;28;20519;-67
2023/01/28 05:21:22;;;;;;;2.00;1.35;;;;;;;1.14;74.09;99750.75;5115844;28;20396;-67
2023/01/28 05:23:58;;;;;;;2.15;1.75;;;;;;;1.09;73.88;99752.22;5117521;28;20055;-67
2023/01/28 05:26:29;;;;;;;1.48;1.00;;;;;;;1.10;74.58;99748.06;5117099;28;20054;-67
2023/01/28 05:28:58;;;;;;;2.45;2.25;;;;;;;1.09;74.69;99754.75;5115578;28;20046;-67
2023/01/28 05:31:27;;;;;;;1.33;1.30;;;;;;;1.09;74.32;99753.88;5116088;28;20455;-67
2023/01/28 05:33:56;;;;;;;1.88;1.73;;;;;;;1.06;74.72;99752.09;5115457;28;20043;-68
2023/01/28 05:36:27;;;;;;;0.57;0.57;;;;;;;1.08;74.13;99758.03;5115438;28;20036;-68
2023/01/28 05:38:56;;;;;;;0.57;0.57;;;;;;;1.08;75.24;99757.22;5115439;28;20036;-68
2023/01/28 05:41:26;;;;;;;0.98;0.98;;;;;;;1.03;74.57;99767.06;5115573;28;20042;-67
2023/01/28 05:44:00;;;;;;;1.90;1.80;;;;;;;1.00;75.14;99766.09;5116826;28;20071;-67
2023/01/28 05:46:55;;;;;;;0.40;0.40;;;;;;;0.98;75.02;99773.59;5113829;28;20121;-67
2023/01/28 05:49:35;;;;;;;2.08;1.98;;;;;;;0.98;75.12;99776.09;5116276;28;20039;-67
2023/01/28 05:52:32;;;;;;;4.32;1.50;;;;;;;1.01;74.98;99773.69;5112894;28;20040;-67
2023/01/28 05:55:01;;;;;;;2.63;2.03;;;;;;;0.99;75.71;99779.44;5115446;28;20123;-66
2023/01/28 05:57:30;;;;;;;8.68;2.88;;;;;;;0.95;75.04;99783.50;5115268;28;20100;-68
2023/01/28 06:00:02;;;;;;;5.43;1.95;;;;;;;0.93;75.76;99785.13;5115055;28;20094;-68
2023/01/28 06:02:42;;;;;;;2.20;1.30;;;;;;;0.91;76.12;99786.69;5116400;28;20448;-67
2023/01/28 06:05:14;;;;;;;3.33;3.05;;;;;;;0.91;76.10;99786.69;5116121;28;20058;-68
2023/01/28 06:07:47;;;;;;;1.30;1.20;;;;;;;0.88;75.28;99786.59;5115003;28;20097;-68
2023/01/28 06:10:17;;;;;;;1.63;1.52;;;;;;;0.92;76.35;99798.47;5116349;28;20066;-67
2023/01/28 06:12:47;;;;;;;3.25;2.17;;;;;;;0.92;75.99;99807.63;5116178;27;20486;-67
2023/01/28 06:15:27;;;;;;;1.98;1.88;;;;;;;0.83;76.16;99798.09;5115892;28;20489;-68
2023/01/28 06:18:02;;;;;;;2.40;2.20;;;;;;;0.82;76.54;99811.44;5115070;28;20447;-67
2023/01/28 06:20:34;;;;;;;2.85;1.67;;;;;;;0.81;76.67;99812.25;5115719;28;20047;-67
2023/01/28 06:23:04;;;;;;;6.78;4.43;;;;;;;0.79;77.30;99811.34;5114555;28;20442;-68
2023/01/28 06:25:33;;;;;;;1.35;1.27;;;;;;;0.80;77.14;99818.06;5114458;28;20073;-68
2023/01/28 06:28:07;;;;;;;2.08;1.92;;;;;;;0.77;77.90;99819.63;5115825;28;20438;-68
2023/01/28 06:30:36;;;;;;;1.37;1.27;;;;;;;0.76;78.69;99826.28;5115492;28;20044;-68
2023/01/28 06:33:05;;;;;;;2.30;1.42;;;;;;;0.73;78.61;99835.34;5115797;28;20435;-68
2023/01/28 06:35:34;;;;;;;2.03;1.88;;;;;;;0.72;78.94;99833.63;5115354;28;20044;-67
2023/01/28 06:38:04;;;;;;;2.70;2.03;;;;;;;0.73;79.43;99831.19;5115686;28;20134;-67
2023/01/28 06:40:33;;;;;;;0.85;0.85;;;;;;;0.75;79.43;99838.75;5115382;28;20477;-67
2023/01/28 06:43:02;;;;;;;1.70;1.60;;;;;;;0.70;79.62;99841.09;5115264;28;20069;-67
2023/01/28 06:45:31;;;;;;;3.00;2.80;;;;;;;0.68;80.14;99841.03;5115493;28;20046;-68
2023/01/28 06:48:00;;;;;;;1.17;1.02;;;;;;;0.66;80.09;99854.31;5115169;28;20043;-67
2023/01/28 06:50:31;;;;;;;1.35;1.25;;;;;;;0.65;80.42;99847.56;5115139;28;20554;-67
2023/01/28 06:53:00;;;;;;;1.33;1.23;;;;;;;0.62;80.59;99850.00;5115077;28;20101;-66
2023/01/28 06:55:30;;;;;;;1.88;1.77;;;;;;;0.63;80.50;99851.69;5114961;28;20094;-68
2023/01/28 06:57:59;;;;;;;3.08;2.17;;;;;;;0.64;81.16;99855.94;5115384;28;20047;-68
2023/01/28 07:00:28;;;;;;;0.75;0.73;;;;;;;0.65;80.87;99862.63;5114708;28;20047;-67
2023/01/28 07:02:56;;;;;;;1.20;1.15;;;;;;;0.67;81.01;99863.59;5114657;28;20032;-67
2023/01/28 07:05:26;;;;;;;1.75;1.63;;;;;;;0.66;81.07;99864.38;5113931;28;20556;-69
2023/01/28 07:07:54;;;;;;;1.85;1.75;;;;;;;0.67;81.38;99861.91;5114828;28;20089;-66
2023/01/28 07:10:23;;;;;;;0.80;0.80;;;;;;;0.61;81.02;99865.84;5114957;28;20039;-68
2023/01/28 07:12:53;;;;;;;1.30;1.20;;;;;;;0.63;81.22;99869.25;5114965;28;20500;-67
2023/01/28 07:15:22;;;;;;;23.08;4.13;;;;;;;0.67;81.22;99868.63;5114958;28;20104;-67
2023/01/28 07:17:51;;;;;;;3.63;2.00;;;;;;;0.67;81.32;99871.97;5114550;28;20039;-67
2023/01/28 07:20:21;;;;;;;3.33;3.03;;;;;;;0.71;81.12;99875.47;5114910;28;20276;-67
2023/01/28 07:22:50;;;;;;;0.90;0.88;;;;;;;0.72;81.28;99874.66;5114469;28;20040;-67
2023/01/28 07:25:18;;;;;;;2.78;2.58;;;;;;;0.74;81.26;99877.25;5114529;28;20085;-69
2023/01/28 07:27:49;;;;;;;3.10;1.63;;;;;;;0.74;81.41;99888.16;5114402;28;20035;-67
2023/01/28 07:30:22;;;;;;;2.55;2.35;;;;;;;0.78;80.61;99887.47;5114390;28;20071;-69
2023/01/28 07:32:55;;;;;;;0.63;0.63;;;;;;;0.82;80.56;99885.94;5114581;28;20047;-68
2023/01/28 07:35:24;;;;;;;0.70;0.70;;;;;;;0.79;80.90;99890.84;5114678;28;20131;-67
2023/01/28 07:37:53;;;;;;;;;;;;;;;0.83;80.95;99890.19;5114897;28;20148;-68
2023/01/28 07:40:22;;;;;;;0.70;0.70;;;;;;;0.83;80.69;99898.56;5114561;28;20311;-68
2023/01/28 07:42:52;;;;;;;5.13;2.38;;;;;;;0.80;80.64;99890.91;5114164;28;20486;-67
2023/01/28 07:45:25;;;;;;;0.57;0.57;;;;;;;0.91;79.78;99901.41;5114109;28;20564;-66
2023/01/28 07:47:56;;;;;;;1.13;1.02;;;;;;;0.93;79.46;99899.81;5114484;28;20044;-67
2023/01/28 07:50:25;;;;;;;1.25;1.23;;;;;;;0.94;80.07;99902.38;5114304;28;20382;-67
2023/01/28 07:52:53;;;;;;;0.80;0.80;;;;;;;0.95;79.42;99899.06;5113968;28;20492;-68
2023/01/28 07:55:22;;;;;;;1.42;1.33;;;;;;;0.93;79.93;99889.75;5114614;28;20558;-68
2023/01/28 07:57:52;;;;;;;1.83;1.73;;;;;;;0.94;79.49;99902.38;5114012;28;20067;-68
2023/01/28 08:00:22;;;;;;;0.70;0.70;;;;;;;0.98;78.74;99895.84;5114066;28;20051;-68
2023/01/28 08:02:56;;;;;;;1.80;1.70;;;;;;;1.01;78.98;99896.78;5114025;28;20542;-67
2023/01/28 08:05:29;;;;;;;13.15;2.65;;;;;;;1.04;78.71;99904.47;5114288;28;20109;-67
2023/01/28 08:07:58;;;;;;;1.83;1.73;;;;;;;1.05;79.17;99911.22;5113563;28;20050;-67
2023/01/28 08:10:26;;;;;;;1.40;1.30;;;;;;;1.09;79.30;99913.06;5113620;28;20497;-67
2023/01/28 08:12:57;;;;;;;0.95;0.93;;;;;;;1.07;79.10;99909.63;5113908;28;20044;-66
2023/01/28 08:15:27;;;;;;;1.38;1.30;;;;;;;1.08;78.60;99910.50;5113978;28;20044;-68
2023/01/28 08:17:59;;;;;;;2.40;1.58;;;;;;;1.12;78.48;99913.19;5118386;28;20393;-67
2023/01/28 08:20:29;;;;;;;2.72;2.53;;;;;;;1.18;79.16;99908.38;5118374;27;20062;-67
2023/01/28 08:23:06;;;;;;;1.75;1.65;;;;;;;1.26;78.54;99914.59;5118431;28;20048;-67
2023/01/28 08:25:36;;;;;;;2.00;1.90;;;;;;;1.29;78.44;99917.22;5104835;28;20048;-68
2023/01/28 08:28:05;;;;;;;3.13;2.85;;;;;;;1.31;78.54;99919.78;5097777;28;20516;-67
2023/01/28 08:30:36;;;;;;;0.93;0.88;;;;;;;1.34;78.29;99915.72;5097715;28;20071;-67
2023/01/28 08:33:09;;;;;;;0.70;0.70;;;;;;;1.35;77.54;99922.47;5097652;28;20072;-67
2023/01/28 08:35:38;;;;;;;1.30;1.15;;;;;;;1.34;77.28;99930.81;5097342;28;20044;-67
2023/01/28 08:38:08;;;;;;;0.77;0.77;;;;;;;1.41;76.65;99933.56;5097421;28;20624;-68
2023/01/28 08:40:37;;;;;;;1.60;1.50;;;;;;;1.43;77.01;99934.50;5097642;28;20040;-67
2023/01/28 08:43:07;;;;;;;1.70;1.60;;;;;;;1.46;76.88;99935.50;5097221;28;20052;-67
2023/01/28 08:45:36;;;;;;;2.78;2.58;;;;;;;1.46;76.48;99934.63;5097154;28;20051;-66
2023/01/28 08:48:11;;;;;;;1.95;1.85;;;;;;;1.50;76.68;99933.94;5097181;28;20075;-68
2023/01/28 08:50:40;;;;;;;1.33;1.23;;;;;;;1.52;76.66;99930.69;5096980;28;20130;-68
2023/01/28 08:53:12;;;;;;;1.00;1.00;;;;;;;1.57;76.04;99941.78;5097585;28;20036;-68
2023/01/28 08:55:41;;;;;;;3.85;3.20;;;;;;;1.61;76.29;99935.22;5095895;28;20544;-67
2023/01/28 08:58:12;;;;;;;2.45;2.25;;;;;;;1.72;76.69;99941.50;5097194;28;20036;-67
2023/01/28 09:00:41;;;;;;;0.90;0.90;;;;;;;1.81;75.86;99942.72;5096860;28;20101;-67
2023/01/28 09:03:11;;;;;;;1.83;1.73;;;;;;;1.83;76.29;99940.25;5096793;28;20547;-67
2023/01/28 09:05:40;;;;;;;1.73;1.63;;;;;;;1.88;75.96;99946.31;5096893;28;20058;-67
2023/01/28 09:08:11;;;;;;;0.73;0.73;;;;;;;1.81;76.24;99940.22;5095831;28;20119;-67
2023/01/28 09:10:41;;;;;;;5.85;3.20;;;;;;;1.80;75.47;99948.53;5096669;28;20122;-68
2023/01/28 09:13:10;;;;;;;;;;;;;;;1.77;75.84;99948.44;5097097;28;20044;-67
2023/01/28 09:15:39;;;;;;;2.25;1.80;;;;;;;1.88;76.09;99956.38;5096667;28;19919;-67
2023/01/28 09:18:08;;;;;;;1.23;1.13;;;;;;;1.95;75.25;99958.31;5096128;28;20673;-67
2023/01/28 09:20:39;;;;;;;2.73;2.53;;;;;;;1.79;75.42;99945.97;5096533;28;20741;-67
2023/01/28 09:23:08;;;;;;;0.77;0.77;;;;;;;1.97;75.03;99962.63;5096563;28;20044;-67
2023/01/28 09:25:37;;;;;;;2.87;1.63;;;;;;;2.09;75.66;99967.25;5095828;28;20094;-69
2023/01/28 09:28:06;;;;;;;0.75;0.75;;;;;;;2.06;75.73;99967.16;5095871;28;20277;-68
2023/01/28 09:30:36;;;;;;;1.40;1.15;;;;;;;1.99;75.16;99970.25;5095894;28;20047;-68
2023/01/28 09:33:07;;;;;;;0.70;0.70;;;;;;;2.06;75.74;99968.81;5096261;28;20135;-69
2023/01/28 09:35:36;;;;;;;1.50;1.40;;;;;;;2.10;74.76;99974.00;5096355;28;20494;-69
2023/01/28 09:38:06;;;;;;;1.07;1.03;;;;;;;2.05;75.80;99965.44;5096433;28;20090;-67
2023/01/28 09:40:37;;;;;;;1.48;1.38;;;;;;;2.07;75.83;99968.00;5129567;27;20157;-67
2023/01/28 09:43:31;;;;;;;1.23;1.13;;;;;;;2.17;75.88;99962.50;5096070;28;20048;-68
2023/01/28 09:46:05;;;;;;;2.22;2.08;;;;;;;2.20;75.70;99966.00;5096134;28;20075;-67
2023/01/28 09:48:40;;;;;;;0.95;0.95;;;;;;;2.16;76.12;99959.13;5096440;28;20133;-67
2023/01/28 09:51:18;;;;;;;2.05;1.95;;;;;;;2.10;75.78;99958.91;5095882;28;20044;-68
2023/01/28 09:53:53;;;;;;;0.90;0.90;;;;;;;2.13;75.88;99969.09;5096473;28;20047;-68
2023/01/28 09:56:26;;;;;;;1.92;1.83;;;;;;;2.17;75.25;99959.97;5096333;28;20051;-67
2023/01/28 09:58:57;;;;;;;1.33;1.15;;;;;;;2.21;75.47;99967.69;5096155;28;20056;-67
2023/01/28 10:01:40;;;;;;;1.55;1.45;;;;;;;2.26;76.08;99960.31;5095748;28;20093;-68
2023/01/28 10:04:23;;;;;;;2.03;1.85;;;;;;;2.32;75.66;99956.38;5096010;28;20113;-68
2023/01/28 10:07:00;;;;;;;1.83;1.17;;;;;;;2.46;76.05;99962.78;5095636;28;20434;-68
2023/01/28 10:09:41;;;;;;;1.48;1.38;;;;;;;2.48;75.32;99958.63;5095610;28;20054;-69
2023/01/28 10:12:29;;;;;;;1.17;1.15;;;;;;;2.49;75.60;99952.81;5094302;28;20044;-68
2023/01/28 10:15:22;;;;;;;0.70;0.70;;;;;;;2.52;75.13;99945.34;5095450;28;20047;-68
2023/01/28 10:17:54;;;;;;;3.47;2.15;;;;;;;2.60;74.66;99961.59;5095430;28;20051;-68
2023/01/28 10:20:48;;;;;;;1.48;1.38;;;;;;;2.42;74.88;99953.41;5095311;28;20044;-68
2023/01/28 10:23:25;;;;;;;1.52;1.42;;;;;;;2.27;75.25;99945.28;5095273;28;20059;-67
2023/01/28 10:26:02;;;;;;;2.35;1.88;;;;;;;2.38;74.31;99956.59;5095307;28;20055;-68
2023/01/28 10:28:31;;;;;;;2.25;1.45;;;;;;;2.49;74.72;99955.31;5095137;28;20101;-67
2023/01/28 10:31:00;;;;;;;3.25;2.78;;;;;;;2.58;74.50;99949.75;5095102;28;20504;-68
2023/01/28 10:33:35;;;;;;;1.95;1.85;;;;;;;2.43;74.42;99945.03;5094948;28;20040;-68
2023/01/28 10:36:06;;;;;;;2.03;1.90;;;;;;;2.37;74.76;99949.84;5095126;28;20109;-68
2023/01/28 10:38:36;;;;;;;1.55;1.10;;;;;;;2.35;74.29;99953.94;5095400;28;20047;-68
2023/01/28 10:41:10;;;;;;;1.50;1.45;;;;;;;2.48;74.83;99953.59;5094982;28;20044;-69
2023/01/28 10:43:42;;;;;;;0.63;0.63;;;;;;;2.60;74.38;99958.22;5094878;28;20072;-68
2023/01/28 10:46:16;;;;;;;0.85;0.85;;;;;;;2.52;74.27;99957.09;5095423;28;20113;-68
2023/01/28 10:48:53;;;;;;;0.40;0.40;;;;;;;2.43;74.28;99957.63;5094833;28;20052;-67
2023/01/28 10:51:34;;;;;;;1.40;1.30;;;;;;;2.29;74.75;99928.56;5095032;28;20068;-66
2023/01/28 10:54:17;;;;;;;5.05;2.15;;;;;;;2.51;75.17;99952.84;5095191;28;20087;-68
2023/01/28 10:56:49;;;;;;;1.15;1.05;;;;;;;2.60;74.52;99958.22;5095013;28;20070;-67
2023/01/28 10:59:25;;;;;;;0.60;0.60;;;;;;;2.65;74.50;99957.56;5094703;28;20486;-68
2023/01/28 11:01:57;;;;;;;0.80;0.80;;;;;;;2.50;74.35;99959.53;5094708;28;20044;-67
2023/01/28 11:04:29;;;;;;;1.10;1.00;;;;;;;2.53;74.49;99957.16;5094812;28;20101;-67
2023/01/28 11:07:02;;;;;;;0.63;0.63;;;;;;;2.49;75.16;99954.47;5094786;28;20563;-68
2023/01/28 11:09:33;;;;;;;0.70;0.70;;;;;;;2.57;74.94;99953.06;5093508;28;20371;-67
2023/01/28 11:12:13;;;;;;;0.93;0.93;;;;;;;2.68;75.46;99951.78;5094381;28;20036;-68
2023/01/28 11:14:51;;;;;;;4.68;3.78;;;;;;;2.83;75.13;99946.41;5094604;28;20051;-67
2023/01/28 11:17:23;;;;;;;3.72;2.42;;;;;;;2.88;74.57;99944.91;5093342;28;20397;-69
2023/01/28 11:19:55;;;;;;;2.80;2.60;;;;;;;2.84;74.50;99943.06;5094864;28;20040;-68
2023/01/28 11:22:33;;;;;;;3.15;2.83;;;;;;;2.83;74.14;99951.47;5094217;28;20501;-68
2023/01/28 11:25:06;;;;;;;0.63;0.63;;;;;;;2.81;74.47;99943.00;5094241;28;20127;-68
2023/01/28 11:27:37;;;;;;;0.50;0.50;;;;;;;2.90;74.62;99938.25;5094372;28;20056;-68
2023/01/28 11:30:21;;;;;;;3.60;2.25;;;;;;;3.08;74.87;99938.84;5094175;28;20076;-67
2023/01/28 11:32:56;;;;;;;1.40;1.30;;;;;;;3.23;74.58;99941.88;5094336;28;20068;-68
2023/01/28 11:35:29;;;;;;;2.75;2.15;;;;;;;3.24;73.99;99943.59;5094095;28;20051;-68
2023/01/28 11:37:58;;;;;;;1.17;1.10;;;;;;;3.18;73.10;99940.88;5093907;28;20048;-69
2023/01/28 11:40:28;;;;;;;0.73;0.73;;;;;;;3.20;73.23;99940.13;5093865;28;20086;-67
2023/01/28 11:42:59;;;;;;;;;;;;;;;3.35;73.45;99934.72;5094885;28;20048;-67
2023/01/28 11:45:38;;;;;;;0.90;0.80;;;;;;;3.46;73.13;99930.84;5094345;28;20003;-67
2023/01/28 11:48:18;;;;;;;2.83;2.63;;;;;;;3.43;73.20;99938.34;5093932;28;20074;-67
2023/01/28 11:50:51;;;;;;;;;;;;;;;3.51;73.35;99941.94;5092866;28;20052;-67
2023/01/28 11:53:39;;;;;;;6.07;1.58;;;;;;;3.65;73.18;99930.59;5093734;28;19919;-68
2023/01/28 11:56:25;;;;;;;0.50;0.50;;;;;;;3.90;72.86;99932.22;5093774;28;20052;-68
2023/01/28 11:59:04;;;;;;;1.00;1.00;;;;;;;3.94;72.18;99928.97;5093781;28;20070;-68
2023/01/28 12:01:46;;;;;;;1.92;0.85;;;;;;;4.12;71.68;99929.50;5093746;28;20085;-67
2023/01/28 12:04:36;;;;;;;1.02;1.02;;;;;;;4.11;71.06;99931.97;5093566;28;20055;-68
2023/01/28 12:07:25;;;;;;;1.92;1.83;;;;;;;4.16;70.71;99927.91;5092347;28;20506;-68
2023/01/28 12:09:59;;;;;;;1.25;1.15;;;;;;;4.20;70.05;99934.78;5093957;28;20090;-69
2023/01/28 12:12:45;;;;;;;2.00;1.48;;;;;;;4.17;70.39;99933.03;5093381;28;20090;-68
2023/01/28 12:15:50;;;;;;;2.45;1.58;;;;;;;4.23;70.15;99932.31;5093875;28;20067;-67
2023/01/28 12:18:32;;;;;;;0.60;0.60;;;;;;;4.17;70.35;99935.56;5092280;28;20043;-67
2023/01/28 12:21:07;;;;;;;3.63;1.38;;;;;;;3.96;69.72;99933.25;5093407;28;20139;-67
2023/01/28 12:23:53;;;;;;;0.98;0.98;;;;;;;3.93;70.29;99927.25;5093886;28;20070;-68
2023/01/28 12:26:35;;;;;;;1.50;1.40;;;;;;;3.91;69.86;99929.72;5093471;28;20119;-68
2023/01/28 12:29:22;;;;;;;2.20;2.10;;;;;;;3.81;69.80;99937.00;5093392;28;20052;-67
2023/01/28 12:32:08;;;;;;;2.88;2.55;;;;;;;3.70;69.57;99938.31;5093630;28;20084;-67
2023/01/28 12:35:06;;;;;;;0.60;0.60;;;;;;;3.63;69.27;99937.28;5093312;28;20048;-67
2023/01/28 12:37:49;;;;;;;4.78;2.33;;;;;;;3.57;70.26;99937.09;5093872;28;20067;-68
2023/01/28 12:40:35;;;;;;;1.52;1.42;;;;;;;3.54;70.25;99942.06;5093354;28;20056;-66
2023/01/28 12:43:12;;;;;;;1.25;1.15;;;;;;;3.42;70.18;99936.63;5093311;28;20047;-67